Tiempo atmosférico en la estación meteorológica de La Molina, Girona (1704 m.)



Fecha
DESCASC
Temp. máxima en grados centígrados (hora)
DESCASC
Temp. mínima en grados centígrados (hora)
DESCASC
Temp. media en grados centígrados
DESCASC
Racha de viento máxima en m/sg (hora)
DESCASC
Velocidad máxima media en intervalos de 10 minutos(hora)
DESCASC
Precipitaciones diarias en mm
DESCASC
Precipitaciones de 00:00 a 06:00 en mm
DESCASC
Precipitaciones de 06:00 a 12:00 en mm
DESCASC
Precipitaciones de 12:00 a 18:00 en mm
DESCASC
Precipitaciones de 18:00 a 24:00 en mm
DESCASC
18-08-2019 27.7 (14:30) 14.8 (07:30) 21.3 11.11 (20:30) 5.28 (21:00) 0 0 0 0 0
17-08-2019 26.2 (16:40) 11.4 (06:00) 18.8 9.44 (17:00) 5.56 (19:10) 0 0 0 0 0
16-08-2019 24.2 (17:20) 9.9 (05:50) 17.1 9.17 (15:40) 4.72 (16:10) 0 0 0 0 0
15-08-2019 21.4 (15:40) 9.8 (00:00) 15.6 10.28 (15:50) 4.72 (12:40) 0 0 0 0 0
14-08-2019 21.3 (15:30) 7.4 (00:00) 14.3 8.33 (20:50) 5.56 (20:30) 0 0 0 0 0
13-08-2019 18.7 (15:10) 5.7 (00:00) 12.2 8.33 (16:10) 4.72 (20:40) 0 0 0 0 0
12-08-2019 18.5 (16:50) 9 (00:00) 13.8 9.72 (06:00) 4.17 (16:50) 9.8 9.8 0 0 0
11-08-2019 24.4 (16:10) 16 (00:00) 20.2 12.22 (08:30) 4.17 (16:20) 0 0 0 0 0
10-08-2019 25.4 (16:30) 16.2 (00:00) 20.8 10.56 (11:40) 5 (22:20) 0 0 0 0 0
09-08-2019 28 (18:20) 14.4 (00:00) 21.2 11.39 (10:50) 5.56 (10:00) 0 0 0 0 0
08-08-2019 26.1 (15:50) 13.8 (00:00) 20 8.33 (15:10) 3.89 (18:10) 0 0 0 0 0
07-08-2019 23.3 (13:40) 15 (00:00) 19.1 10 (21:40) 5.83 (06:00) 1 0 0 1 0
06-08-2019 25.9 (16:00) 15.3 (00:00) 20.6 9.72 (17:30) 4.17 (22:20) 0 0 0 0 0
05-08-2019 26.5 (15:30) 14.2 (00:00) 20.3 9.72 (19:20) 5.28 (21:00) 0 0 0 0 0
04-08-2019 26 (16:30) 13.8 (00:00) 19.9 9.44 (18:20) 4.44 (12:20) 0 0 0 0 0
03-08-2019 24.8 (17:00) 11.9 (00:00) 18.3 9.44 (11:20) 5 (12:00) 0 0 0 0 0
02-08-2019 24.7 (16:40) 13 (00:00) 18.9 10 (15:00) 4.72 (19:40) 1.4 0 1.4 0 0
01-08-2019 22.9 (16:10) 12.1 (00:00) 17.5 11.11 (15:30) 5.56 (17:20) 0 0 0 0 0
31-07-2019 22.4 (14:50) 9.3 (00:00) 15.8 10 (16:50) 5 (16:40) 0 0 0 0 0
30-07-2019 20.1 (14:40) 13.8 (00:00) 17 10 (11:40) 4.72 (05:20) 0 0 0 0 0
29-07-2019 23.3 (17:50) 8.2 (00:00) 15.7 10.28 (22:00) 6.94 (21:40) 0 0 0 0 0
28-07-2019 19.4 (16:20) 6.8 (00:00) 13.1 10 (21:20) 6.11 (21:50) 0 0 0 0 0
27-07-2019 17.3 (17:20) 9 (00:00) 13.1 8.61 (16:40) 4.44 (16:00) 24.4 4.4 11.2 5.4 3.4
26-07-2019 22.9 (11:50) 13.1 (00:00) 18 11.11 (17:50) 4.72 (17:50) 4.4 0 0 3.6 0.8
25-07-2019 26.6 (15:50) 14.4 (00:00) 20.5 10 (20:20) 6.11 (20:50) 0 0 0 0 0
24-07-2019 27.7 (14:20) 15.7 (00:00) 21.7 9.72 (14:40) 4.72 (14:50) 0 0 0 0 0
23-07-2019 29.1 (16:20) 14.6 (00:00) 21.9 10.83 (19:30) 5.83 (19:50) 0 0 0 0 0
22-07-2019 28.5 (17:30) 15.5 (00:00) 22 10 (19:20) 5.83 (19:50) 0 0 0 0 0
21-07-2019 26.2 (17:00) 13.7 (00:00) 20 10 (16:20) 4.72 (21:40) 0 0 0 0 0

Gráficas

Temp. máximas Temp. mínimas Temp. medias Precipitaciones Rachas de viento máximas Velocidades máximas media en intervalos de 10 minutos

Datos horarios

Fecha y hora oficial Temperatura (ºC) Velocidad del viento (km/h) Dirección del viento Racha (km/h) Dirección de racha Precipitación (mm) Presión (hPa) Tendencia (hPa) Humedad (%)
2019-08-19 23:00:00 15.7 7 Este 19 Sudeste 0 835.4 0.5 86
2019-08-19 22:00:00 16.5 13 Sudeste 21 Sudeste 0 835.4 0.7 80
2019-08-19 21:00:00 16.6 8 Sur 23 Sur 0 835 0.1 78
2019-08-19 20:00:00 16.6 14 Sudeste 31 Sudeste 0 834.9 0 83
2019-08-19 19:00:00 19.3 6 Sudoeste 26 Sudoeste 0 834.7 -0.1 69
2019-08-19 18:00:00 19.4 8 Oeste 36 Sudeste 0 834.9 -0.1 66
2019-08-19 17:00:00 19.3 5 Sudoeste 27 Este 0 834.9 -0.2 65
2019-08-19 16:00:00 19.4 12 Este 30 Nordeste 0 834.8 0 64
2019-08-19 15:00:00 21.2 10 Este 32 Sudoeste 0 835 0.4 60
2019-08-19 14:00:00 19.6 14 Sudoeste 32 Sur 0 835.1 0.9 63
2019-08-19 13:00:00 20.2 15 Sudoeste 33 Sudoeste 0 834.8 1.2 63
2019-08-19 12:00:00 20.2 14 Sudoeste 34 Sudoeste 0 834.6 0.8 60
2019-08-19 11:00:00 18.6 14 Sur 28 Sur 0 834.2 0.8 61
2019-08-19 10:00:00 18.8 12 Sur 28 Sudoeste 0 833.6 0.3 57
2019-08-19 09:00:00 16.4 6 Noroeste 21 Sur 0 833.8 0.7 65
2019-08-19 08:00:00 15 8 Sur 19 Sur 0 833.4 0.1 70
2019-08-19 07:00:00 12.5 3 Sudeste 10 Nordeste 0 833.3 -0.2 76
2019-08-19 06:00:00 14.1 2 Nordeste 20 Sudeste 0 833.1 -0.6 71
2019-08-19 05:00:00 15.6 9 Sudeste 23 Sur 0 833.3 -0.7 63
2019-08-19 04:00:00 16.3 11 Sudeste 33 Sudoeste 0 833.5 -0.7 59
2019-08-19 03:00:00 17.2 14 Sudoeste 35 Sudoeste 0 833.7 -0.2 54
2019-08-19 02:00:00 17.6 9 Sudoeste 28 Sudoeste 0 834 0.3 50
2019-08-19 01:00:00 17.1 12 Este 24 Sudoeste 0 834.2 1.1 72
2019-08-19 00:00:00 17.9 8 Este 22 Sudeste 0 833.9 1.3 67
2019-08-18 23:00:00 18.4 5 Sur 24 Sudeste 0 833.7 1.3 66
2019-08-18 22:00:00 19.2 10 Sur 32 Sudeste 0 833.1 0.8 61
2019-08-18 21:00:00 19.3 19 Sudeste 40 Sudeste 0 832.6 0.5 80
2019-08-18 20:00:00 21.9 8 Sudoeste 33 Sudoeste 0 832.4 0.2 66
2019-08-18 19:00:00 23 5 Sudoeste 30 Oeste 0 832.3 -0.2 55
2019-08-18 18:00:00 26.3 9 Sudoeste 33 Sudoeste 0 832.1 -0.4 38
2019-08-18 17:00:00 25.7 9 Sudoeste 26 Sudoeste 0 832.2 -0.6 41
2019-08-18 16:00:00 25.2 12 Sudoeste 32 Oeste 0 832.5 -0.5 41
2019-08-18 15:00:00 27.3 11 Sur 30 Sudeste 0 832.5 -0.4 30
2019-08-18 14:00:00 26.8 17 Noroeste 38 Noroeste 0 832.8 0 29
2019-08-18 13:00:00 25.8 6 Noroeste 23 Norte 0 833 0.5 37
2019-08-18 12:00:00 24.2 8 Norte 21 Norte 0 832.9 0.5 45
2019-08-18 11:00:00 23.2 6 Norte 15 Noroeste 0 832.8 0.6 52
2019-08-18 10:00:00 21.8 6 Norte 10 Norte 0 832.5 0.4 50
2019-08-18 09:00:00 18.4 3 Noroeste 8 Sudeste 0 832.4 0.1 59
2019-08-18 08:00:00 15.1 5 Este 11 Sudeste 0 832.2 -0.5 67
2019-08-18 07:00:00 15 5 Sudeste 11 Sudeste 0 832.1 -1.1 66
2019-08-18 06:00:00 15.1 6 Sudeste 12 Nordeste 0 832.3 -1.5 64
2019-08-18 05:00:00 17.3 3 Sur 21 Sur 0 832.7 -1.4 52
2019-08-18 04:00:00 16.8 6 Sur 15 Sudoeste 0 833.2 -1.1 52
2019-08-18 03:00:00 16.3 4 Sur 12 Noroeste 0 833.8 -0.4 61
2019-08-18 02:00:00 16.8 5 Sudoeste 13 Sudoeste 0 834.1 -0.1 65
2019-08-18 01:00:00 17.6 3 Sudeste 15 Sudoeste 0 834.3 0.2 62
2019-08-18 00:00:00 17.4 6 Sudoeste 14 Sudoeste 0 834.2 0.4 61
2019-08-17 23:00:00 18.5 5 Oeste 18 Sur 0 834.2 0.5 73
2019-08-17 22:00:00 19.8 9 Sur 18 Sur 0 834.1 0.1 64
2019-08-17 21:00:00 20 12 Sur 30 Sur 0 833.8 -0.5 69
2019-08-17 20:00:00 21.8 17 Sur 32 Sur 0 833.7 -0.6 64
2019-08-17 19:00:00 23.3 17 Sudoeste 32 Sudoeste 0 834 -0.6 56
2019-08-17 18:00:00 24.6 13 Sur 34 Sudoeste 0 834.3 -0.7 46
2019-08-17 17:00:00 25.7 11 Sur 34 Sudeste 0 834.3 -1 40
2019-08-17 16:00:00 25.5 10 Sudoeste 31 Sudoeste 0 834.6 -0.9 41
2019-08-17 15:00:00 25.7 8 Sudoeste 25 Sudoeste 0 835 -0.6 42
2019-08-17 14:00:00 24.9 10 Sudoeste 23 Sudeste 0 835.3 -0.2 39
2019-08-17 13:00:00 24.4 7 Sur 24 Sudoeste 0 835.5 0 39
2019-08-17 12:00:00 23.7 10 Sur 23 Sudeste 0 835.6 -0.1 38
2019-08-17 11:00:00 22.1 6 Norte 12 Norte 0 835.5 0.1 41
2019-08-17 10:00:00 20 3 Nordeste 14 Nordeste 0 835.5 0.2 43
2019-08-17 09:00:00 15.6 2 Sudeste 7 Sudeste 0 835.7 0.3 61
2019-08-17 08:00:00 11.9 4 Sudeste 12 Sudeste 0 835.4 -0.1 73
2019-08-17 07:00:00 11.6 4 Sudeste 10 Sudeste 0 835.3 -0.1 70
2019-08-17 06:00:00 11.4 5 Sudeste 10 Sudeste 0 835.4 -0.2 73
2019-08-17 05:00:00 12.1 5 Sudeste 10 Sudeste 0 835.5 -0.1 69
2019-08-17 04:00:00 12.8 6 Sudeste 10 Sudeste 0 835.4 -0.6 64
2019-08-17 03:00:00 13.2 5 Sudeste 12 Sudeste 0 835.6 -0.4 57
2019-08-17 02:00:00 14.1 9 Sudeste 11 Sudeste 0 835.6 -0.4 57
2019-08-17 01:00:00 13.5 7 Sudeste 10 Sudeste 0 836 0.2 64
2019-08-17 00:00:00 14 7 Sudeste 10 Este 0 836 1 59
2019-08-16 23:00:00 14.3 5 Sudeste 11 Sur 0 836 1.4 59
2019-08-16 22:00:00 16 3 Sudeste 19 Sudeste 0 835.8 1.4 57
2019-08-16 21:00:00 18.1 10 Sur 26 Sudoeste 0 835 0.5 48
2019-08-16 20:00:00 21.1 13 Sur 24 Sudeste 0 834.6 0 34
2019-08-16 19:00:00 22.3 14 Sudeste 30 Sudeste 0 834.4 -0.6 40
2019-08-16 18:00:00 24 8 Sudoeste 31 Sudoeste 0 834.5 -0.6 30
2019-08-16 17:00:00 23.9 11 Sur 31 Sudoeste 0 834.6 -0.8 37
2019-08-16 16:00:00 23.2 13 Sudoeste 33 Sudoeste 0 835 -0.7 44
2019-08-16 15:00:00 21.8 15 Sur 31 Sur 0 835.1 -0.8 52
2019-08-16 14:00:00 22.3 14 Sur 26 Sur 0 835.4 -0.7 48
2019-08-16 13:00:00 21.1 6 Noroeste 14 Norte 0 835.7 -0.3 40
2019-08-16 12:00:00 19.3 9 Noroeste 15 Noroeste 0 835.9 0.1 47
2019-08-16 11:00:00 16.8 5 Noroeste 12 Norte 0 836.1 0.4 65
2019-08-16 10:00:00 14.9 7 Norte 12 Norte 0 836 0.6 74
2019-08-16 09:00:00 12.7 2 Norte 9 Nordeste 0 835.8 0.4 90
2019-08-16 08:00:00 11.4 2 Norte 8 Nordeste 0 835.7 0.2 97
2019-08-16 07:00:00 10.9 2 Sudoeste 6 Sudeste 0 835.4 -0.6 97
2019-08-16 06:00:00 10.2 4 Sur 10 Este 0 835.4 -0.7 97
2019-08-16 05:00:00 11.4 4 Este 10 Sudeste 0 835.5 -0.8 93
2019-08-16 04:00:00 10.7 6 Sudeste 9 Sudeste 0 836 -0.6 90
2019-08-16 03:00:00 12.3 5 Este 10 Sudeste 0 836.1 -0.5 82
2019-08-16 02:00:00 12.5 4 Sudeste 12 Sudeste 0 836.3 -0.5 80
2019-08-16 01:00:00 12.7 5 Este 9 Sur 0 836.6 0.1 83
2019-08-16 00:00:00 13.9 6 Sur 15 Sur 0 836.6 0.7 80
2019-08-15 23:00:00 13.5 6 Sur 8 Sur 0 836.8 1.2 85
2019-08-15 22:00:00 15 5 Noroeste 26 Sudoeste 0 836.5 1.4 77
2019-08-15 21:00:00 16.7 15 Sur 26 Sur 0 835.9 0.9 74
2019-08-15 20:00:00 17.6 8 Sudoeste 26 Sur 0 835.6 0.6 66
2019-08-15 19:00:00 18.6 10 Sudoeste 27 Sur 0 835.1 -0.3 62
2019-08-15 18:00:00 19.2 10 Sudoeste 30 Sudoeste 0 835 -0.5 60
2019-08-15 17:00:00 19.9 6 Sur 29 Sur 0 835 -0.6 59
2019-08-15 16:00:00 20.5 11 Sudoeste 37 Sudoeste 0 835.4 -0.3 53
2019-08-15 15:00:00 20.2 13 Sudoeste 26 Sudoeste 0 835.5 -0.3 57
2019-08-15 14:00:00 20.6 14 Sur 28 Sudoeste 0 835.6 -0.2 58
2019-08-15 13:00:00 20.8 12 Sur 32 Sudeste 0 835.7 -0.3 52
2019-08-15 12:00:00 19 6 Nordeste 17 Norte 0 835.8 -0.1 52
2019-08-15 11:00:00 18.4 11 Noroeste 15 Noroeste 0 835.8 0.2 57
2019-08-15 10:00:00 16.8 2 Noroeste 7 Noroeste 0 836 0.5 58
2019-08-15 09:00:00 13.6 2 Este 7 Este 0 835.9 0.7 69
2019-08-15 08:00:00 10.8 5 Sudeste 9 Sudeste 0 835.6 0.3 76
2019-08-15 07:00:00 9.8 4 Sudeste 10 Sudeste 0 835.5 0 78
2019-08-15 06:00:00 10.7 6 Sudeste 10 Sudeste 0 835.2 -0.7 74
2019-08-15 05:00:00 11.1 6 Sudeste 12 Sudeste 0 835.3 -1 73
2019-08-15 04:00:00 11.5 6 Sudeste 11 Sudeste 0 835.5 -1 72
2019-08-15 03:00:00 11.2 6 Sudeste 10 Sudeste 0 835.9 -0.4 74
2019-08-15 02:00:00 10.9 6 Sur 8 Sur 0 836.3 0.1 77
2019-08-15 01:00:00 11.9 3 Sudeste 9 Sudeste 0 836.5 0.8 75
2019-08-15 00:00:00 11.9 6 Sudeste 9 Sudeste 0 836.3 1 74
2019-08-14 23:00:00 12.6 6 Sudeste 17 Sur 0 836.2 1.3 71
2019-08-14 22:00:00 14.8 10 Sur 23 Sur 0 835.7 1 63
2019-08-14 21:00:00 15.7 16 Sur 30 Sudeste 0 835.3 0.9 58
2019-08-14 20:00:00 19 14 Sur 26 Sur 0 834.9 0.4 44
2019-08-14 19:00:00 20 9 Sudeste 30 Sudeste 0 834.7 0.1 44
2019-08-14 18:00:00 19 12 Sudeste 30 Sudeste 0 834.4 0 48
2019-08-14 17:00:00 18.3 11 Sudeste 29 Este 0 834.5 -0.2 52
2019-08-14 16:00:00 20.7 11 Sur 28 Sudeste 0 834.6 -0.1 49
2019-08-14 15:00:00 20.5 9 Sudeste 26 Nordeste 0 834.4 -0.3 51
2019-08-14 14:00:00 20.5 6 Noroeste 18 Noroeste 0 834.7 0.2 38
2019-08-14 13:00:00 19.5 8 Noroeste 15 Noroeste 0 834.7 0.4 41
2019-08-14 12:00:00 17.7 6 Norte 13 Norte 0 834.7 0.4 47
2019-08-14 11:00:00 15.6 4 Norte 14 Noroeste 0 834.5 0.2 53
2019-08-14 10:00:00 14.2 4 Nordeste 12 Norte 0 834.3 0.4 57
2019-08-14 09:00:00 12 2 Nordeste 10 Nordeste 0 834.3 0.4 66
2019-08-14 08:00:00 8.5 4 Este 8 Sudeste 0 834.3 0.1 80
2019-08-14 07:00:00 7.7 6 Sudeste 11 Sudeste 0 833.9 -0.5 82
2019-08-14 06:00:00 7.8 4 Este 9 Sudeste 0 833.9 -0.9 82
2019-08-14 05:00:00 8.4 4 Sudeste 9 Sudeste 0 834.2 -0.7 80
2019-08-14 04:00:00 8.7 5 Este 11 Sudeste 0 834.4 -0.7 81
2019-08-14 03:00:00 7.6 4 Sudeste 7 Sudeste 0 834.8 -0.3 86
2019-08-14 02:00:00 7.6 4 Sudeste 8 Sudeste 0 834.9 0 88
2019-08-14 01:00:00 8.3 3 Sudeste 8 Sudeste 0 835.1 0.5 85
2019-08-14 00:00:00 9.1 4 Sudeste 9 Sudeste 0 835.1 0.8 83
2019-08-13 23:00:00 10.6 4 Sudeste 18 Sur 0 834.9 1 75
2019-08-13 22:00:00 12.5 9 Sur 22 Sudeste 0 834.6 0.9 65
2019-08-13 21:00:00 13.2 12 Sur 27 Sudeste 0 834.3 0.8 63
2019-08-13 20:00:00 16.1 7 Sudeste 23 Sudeste 0 833.9 0.5 48
2019-08-13 19:00:00 16 7 Sur 26 Este 0 833.7 0.3 49
2019-08-13 18:00:00 17.7 8 Sudeste 29 Sudeste 0 833.5 -0.1 49
2019-08-13 17:00:00 17.6 6 Este 30 Sudeste 0 833.4 -0.3 47
2019-08-13 16:00:00 16.6 10 Sudeste 29 Sudeste 0 833.4 -0.5 53
2019-08-13 15:00:00 18.3 10 Sudeste 30 Sudeste 0 833.6 -0.6 53
2019-08-13 14:00:00 16.6 12 Sudeste 22 Sudeste 0 833.7 -0.7 55
2019-08-13 13:00:00 16.6 10 Noroeste 17 Noroeste 0 833.9 -0.5 48
2019-08-13 12:00:00 14.4 5 Norte 11 Noroeste 0 834.2 -0.4 58
2019-08-13 11:00:00 12.7 7 Noroeste 13 Norte 0 834.4 0.2 63
2019-08-13 10:00:00 10.7 3 Norte 7 Norte 0 834.4 0.4 73
2019-08-13 09:00:00 8.9 2 Norte 5 Noroeste 0 834.6 0.4 78
2019-08-13 08:00:00 7.4 3 Sudoeste 6 Sudeste 0 834.2 -0.3 87
2019-08-13 07:00:00 6.5 3 Sudeste 6 Sudeste 0 834 -0.8 89
2019-08-13 06:00:00 5.8 4 Sudeste 9 Sudoeste 0 834.2 -0.8 92
2019-08-13 05:00:00 5.9 4 Sur 10 Sudoeste 0 834.5 -0.8 90
2019-08-13 04:00:00 6.4 5 Sur 10 Sudoeste 0 834.8 -0.8 89
2019-08-13 03:00:00 6.9 5 Sur 10 Sur 0 835 -0.6 88
2019-08-13 02:00:00 8.5 9 Sur 13 Sur 0 835.3 -0.1 78
2019-08-13 01:00:00 9.2 5 Sudoeste 10 Sudoeste 0 835.6 0.6 78
2019-08-13 00:00:00 9.2 6 Sudoeste 11 Oeste 0 835.6 1.3 80
2019-08-12 23:00:00 9 7 Sur 12 Sudoeste 0 835.4 1.8 83
2019-08-12 22:00:00 9.9 3 Sur 11 Noroeste 0 835 1.9 83
2019-08-12 21:00:00 12 4 Norte 12 Noroeste 0 834.3 1.4 73
2019-08-12 20:00:00 14 7 Noroeste 13 Noroeste 0 833.6 0.9 67
2019-08-12 19:00:00 14.6 7 Norte 22 Sudoeste 0 833.1 0.3 67
2019-08-12 18:00:00 16.7 9 Sudoeste 24 Sudoeste 0 832.9 0.1 56
2019-08-12 17:00:00 18.1 10 Sudoeste 32 Sudoeste 0 832.7 -0.1 51
2019-08-12 16:00:00 17.1 9 Sur 29 Sudoeste 0 832.8 -0.2 57
2019-08-12 15:00:00 17.2 14 Sudoeste 32 Sudoeste 0 832.8 -0.2 61
2019-08-12 14:00:00 16.7 13 Sudeste 33 Sudoeste 0 832.8 0 63
2019-08-12 13:00:00 16.5 7 Oeste 27 Sudoeste 0 833 0.7 74
2019-08-12 12:00:00 15.7 7 Norte 16 Noroeste 0 833 1 82
2019-08-12 11:00:00 14.4 6 Norte 12 Norte 0 832.8 0.8 86
2019-08-12 10:00:00 14.9 6 Norte 19 Sudeste 0 832.3 0.8 85
2019-08-12 09:00:00 13.3 4 Norte 23 Sur 0 832 0.1 90
2019-08-12 08:00:00 13.6 9 Sur 21 Sudoeste 0 832 0.8 87
2019-08-12 07:00:00 13.5 8 Sur 23 Noroeste 0 831.5 -0.2 90
2019-08-12 06:00:00 13.9 14 Sur 35 Sur 6.4 831.9 -0.5 85
2019-08-12 05:00:00 13.2 12 Este 24 Sur 1 831.2 -1.4 94
2019-08-12 04:00:00 14.6 9 Este 23 Sudeste 2.4 831.7 -1.5 89
2019-08-12 03:00:00 15.5 10 Sudeste 21 Sudeste 0 832.4 -0.8 78
2019-08-12 02:00:00 16 4 Sudeste 16 Sur 0 832.6 -0.4 77
2019-08-12 01:00:00 16.2 4 Oeste 21 Sudeste 0 833.2 0.4 80
2019-08-12 00:00:00 16.4 7 Este 25 Sudeste 0 833.2 0.5 80
2019-08-11 23:00:00 16.9 8 Sudeste 24 Sudeste 0 833 0.6 75
2019-08-11 22:00:00 16.7 12 Sudeste 23 Sudeste 0 832.8 0.4 77
2019-08-11 21:00:00 17.5 13 Sudeste 24 Sudeste 0 832.7 0.3 72
2019-08-11 20:00:00 19.5 9 Sudeste 31 Sudeste 0 832.4 0.2 51
2019-08-11 19:00:00 20.2 14 Este 30 Sudoeste 0 832.4 0.3 55
2019-08-11 18:00:00 21.2 6 Sudeste 31 Sudeste 0 832.4 0 53
2019-08-11 17:00:00 21.6 14 Este 36 Este 0 832.2 -0.2 47
2019-08-11 16:00:00 24.1 8 Oeste 36 Sudoeste 0 832.1 -1.2 38
2019-08-11 15:00:00 24.2 13 Sudoeste 39 Sudoeste 0 832.4 -0.9 39
2019-08-11 14:00:00 22 8 Este 30 Este 0 832.4 -0.6 52
2019-08-11 13:00:00 20.9 8 Noroeste 23 Sur 0 833.3 0.4 65
2019-08-11 12:00:00 19.7 8 Sur 25 Sudeste 0 833.3 0.1 63
2019-08-11 11:00:00 19.8 8 Oeste 31 Sudoeste 0 833 -0.5 66
2019-08-11 10:00:00 19.2 5 Este 31 Sudeste 0 832.9 -0.9 64
2019-08-11 09:00:00 18.1 8 Sudeste 44 Sudeste 0 833.2 -0.7 66
2019-08-11 08:00:00 16.4 5 Este 18 Este 0 833.5 -0.6 75
2019-08-11 07:00:00 16.1 4 Oeste 24 Sudoeste 0 833.8 -0.9 77
2019-08-11 06:00:00 16.3 8 Sudoeste 27 Sudoeste 0 833.9 -1.2 74
2019-08-11 05:00:00 16.5 7 Sudoeste 25 Sur 0 834.1 -1.4 73
2019-08-11 04:00:00 16.9 9 Sur 26 Sudoeste 0 834.7 -1.2 72
2019-08-11 03:00:00 17 9 Sur 20 Sudoeste 0 835.1 -1 72
2019-08-11 02:00:00 16.8 5 Sur 18 Sudoeste 0 835.5 -0.7 78
2019-08-11 01:00:00 16.7 5 Sudoeste 14 Sur 0 835.9 0 75
2019-08-11 00:00:00 17.5 10 Sudeste 20 Sur 0 836.1 0.3 76
2019-08-10 23:00:00 18.3 13 Sur 31 Sudeste 0 836.2 0.6 71
2019-08-10 22:00:00 18.7 14 Sudeste 29 Sudeste 0 835.9 0.5 66
2019-08-10 21:00:00 20 8 Sudoeste 21 Sur 0 835.8 0.3 52
2019-08-10 20:00:00 21.6 7 Sudoeste 25 Sudoeste 0 835.6 0.2 45
2019-08-10 19:00:00 24.6 6 Sur 26 Sudoeste 0 835.4 -0.2 36
2019-08-10 18:00:00 24.9 9 Sudoeste 37 Sudoeste 0 835.5 -0.4 35
2019-08-10 17:00:00 24.9 13 Sudoeste 35 Oeste 0 835.4 -0.5 36
2019-08-10 16:00:00 24.7 8 Sudoeste 30 Este 0 835.6 -0.4 40
2019-08-10 15:00:00 22.1 9 Este 26 Este 0 835.9 -0.2 51
2019-08-10 14:00:00 22.7 12 Sur 28 Sudeste 0 835.9 0.1 52
2019-08-10 13:00:00 20.8 11 Sudeste 27 Sudeste 0 836 0.4 64
2019-08-10 12:00:00 21.9 6 Sur 38 Sur 0 836.1 0.6 57
2019-08-10 11:00:00 22 12 Sur 27 Sudoeste 0 835.8 0.6 52
2019-08-10 10:00:00 21.3 8 Sur 27 Sur 0 835.6 0.7 53
2019-08-10 09:00:00 19.8 5 Nordeste 22 Norte 0 835.5 1 60
2019-08-10 08:00:00 17.3 4 Este 15 Nordeste 0 835.2 0.9 65
2019-08-10 07:00:00 16.3 5 Sudeste 14 Norte 0 834.9 0.5 67
2019-08-10 06:00:00 17 4 Sudeste 19 Sudoeste 0 834.5 0.2 63
2019-08-10 05:00:00 18.8 6 Oeste 21 Oeste 0 834.3 -0.3 58
2019-08-10 04:00:00 18.9 5 Sudoeste 15 Sudoeste 0 834.4 -0.3 59
2019-08-10 03:00:00 20 8 Sur 20 Sur 0 834.3 -0.3 55
2019-08-10 02:00:00 20.6 9 Sudoeste 34 Sudoeste 0 834.6 0.2 51
2019-08-10 01:00:00 21.3 14 Sur 34 Sur 0 834.7 0.8 46
2019-08-10 00:00:00 21.2 15 Sur 35 Sur 0 834.6 1.1 46
2019-08-09 23:00:00 21 8 Sur 20 Oeste 0 834.4 1.4 43
2019-08-09 22:00:00 21.3 6 Sudoeste 18 Sur 0 833.9 1.1 41
2019-08-09 21:00:00 23.1 11 Sur 21 Sur 0 833.5 0.7 38
2019-08-09 20:00:00 26.8 8 Sur 25 Noroeste 0 833 0.1 29
2019-08-09 19:00:00 27.9 7 Oeste 22 Noroeste 0 832.8 -0.4 24
2019-08-09 18:00:00 27.1 9 Oeste 39 Noroeste 0 832.8 -0.6 27
2019-08-09 17:00:00 27.8 11 Noroeste 31 Noroeste 0 832.9 -0.7 29
2019-08-09 16:00:00 27.3 13 Noroeste 34 Noroeste 0 833.2 -0.6 29
2019-08-09 15:00:00 27.2 10 Oeste 29 Noroeste 0 833.4 -0.2 31
2019-08-09 14:00:00 25.8 17 Noroeste 35 Noroeste 0 833.6 0.2 35
2019-08-09 13:00:00 25.9 8 Sur 34 Noroeste 0 833.8 0.6 32
2019-08-09 12:00:00 24.4 15 Noroeste 34 Noroeste 0 833.6 0.5 38
2019-08-09 11:00:00 23.9 17 Oeste 41 Noroeste 0 833.4 0.2 35
2019-08-09 10:00:00 22.3 20 Sudoeste 38 Oeste 0 833.2 0.2 40
2019-08-09 09:00:00 19.2 6 Norte 14 Nordeste 0 833.1 0 61
2019-08-09 08:00:00 16.6 4 Sudeste 15 Sudeste 0 833.2 -0.3 68
2019-08-09 07:00:00 15.3 8 Sudeste 13 Sudeste 0 833 -0.6 74
2019-08-09 06:00:00 14.4 5 Sudeste 12 Sudeste 0 833.1 -0.5 78
2019-08-09 05:00:00 14.8 6 Sudeste 12 Sudeste 0 833.5 0 78
2019-08-09 04:00:00 16.6 5 Oeste 14 Oeste 0 833.6 0.1 67
2019-08-09 03:00:00 16.1 5 Sudeste 12 Sudeste 0 833.6 0.3 71
2019-08-09 02:00:00 16.5 7 Sudeste 14 Sudeste 0 833.5 0.3 70
2019-08-09 01:00:00 16.7 5 Este 11 Sur 0 833.5 0.5 69
2019-08-09 00:00:00 16.5 4 Sudoeste 11 Sur 0 833.3 0.8 70
2019-08-08 23:00:00 17.7 5 Sur 17 Sur 0 833.2 1.1 66
2019-08-08 22:00:00 19.2 12 Sur 20 Sur 0 833 1 61
2019-08-08 21:00:00 20.6 10 Sur 23 Sudeste 0 832.5 0.4 59
2019-08-08 20:00:00 21 13 Sudeste 26 Sudeste 0 832.1 -0.1 58
2019-08-08 19:00:00 23 6 Este 28 Sudoeste 0 832 -0.3 52
2019-08-08 18:00:00 25.1 12 Sudoeste 30 Nordeste 0 832.1 -0.4 45
2019-08-08 17:00:00 23.7 7 Este 23 Sudoeste 0 832.2 -0.2 50
2019-08-08 16:00:00 25.4 8 Sudoeste 30 Sur 0 832.3 -0.2 43
2019-08-08 15:00:00 25.1 10 Sur 27 Sudoeste 0 832.5 -0.1 41
2019-08-08 14:00:00 23.9 10 Sudoeste 23 Sur 0 832.4 0 45
2019-08-08 13:00:00 22.8 8 Oeste 19 Oeste 0 832.5 0.4 50
2019-08-08 12:00:00 20.1 10 Noroeste 22 Noroeste 0 832.6 0.5 58
2019-08-08 11:00:00 19.3 14 Noroeste 25 Noroeste 0 832.4 0.5 59
2019-08-08 10:00:00 18.7 7 Noroeste 20 Noroeste 0 832.1 0.2 59
2019-08-08 09:00:00 17.3 6 Noroeste 19 Oeste 0 832.1 0.4 65
2019-08-08 08:00:00 15 4 Norte 19 Sudoeste 0 831.9 0.2 75
2019-08-08 07:00:00 15.2 9 Oeste 18 Oeste 0 831.9 0.2 67
2019-08-08 06:00:00 14.1 2 Nordeste 14 Oeste 0 831.7 -0.2 79
2019-08-08 05:00:00 15.4 6 Oeste 24 Oeste 0 831.7 -0.5 70
2019-08-08 04:00:00 15.4 9 Oeste 21 Oeste 0 831.7 -0.3 71
2019-08-08 03:00:00 14.5 2 Sudeste 10 Noroeste 0 831.9 0.2 73
2019-08-08 02:00:00 15.1 4 Este 11 Nordeste 0 832.2 0.4 71
2019-08-08 01:00:00 16.1 4 Este 27 Noroeste 0 832 0.5 63
2019-08-08 00:00:00 17.3 10 Oeste 26 Oeste 0 831.7 0.2 54
2019-08-07 23:00:00 16.3 3 Nordeste 22 Oeste 0 831.8 0.4 68
2019-08-07 22:00:00 17.6 13 Oeste 36 Sur 0 831.5 -0.1 56
2019-08-07 21:00:00 17.5 16 Oeste 31 Oeste 0 831.5 0.2 60
2019-08-07 20:00:00 16.9 6 Nordeste 24 Oeste 0 831.4 -0.3 76
2019-08-07 19:00:00 16.8 5 Oeste 20 Sudoeste 0 831.6 0.8 67
2019-08-07 18:00:00 17.3 6 Oeste 35 Sudoeste 1 831.3 0.4 70
2019-08-07 17:00:00 19.2 12 Sudoeste 31 Sudeste 0 831.7 0.6 70
2019-08-07 16:00:00 20.6 13 Sudoeste 34 Sudoeste 0 830.8 -0.2 65
2019-08-07 15:00:00 22.2 11 Sudoeste 27 Sudoeste 0 830.9 0.1 54
2019-08-07 14:00:00 22.2 12 Sur 28 Sur 0 831.1 0.4 57
2019-08-07 13:00:00 22.9 9 Sur 29 Sudoeste 0 831 0.6 49
2019-08-07 12:00:00 22.2 11 Sur 25 Sudoeste 0 830.8 0.8 50
2019-08-07 11:00:00 20.5 7 Noroeste 16 Nordeste 0 830.7 1.1 60
2019-08-07 10:00:00 19.3 3 Noroeste 9 Norte 0 830.4 0.7 64
2019-08-07 09:00:00 16.9 2 Noroeste 10 Noroeste 0 830 0.2 74
2019-08-07 08:00:00 15.1 3 Sudeste 17 Sur 0 829.6 -0.5 72
2019-08-07 07:00:00 17.1 10 Sur 33 Sur 0 829.7 -0.6 57
2019-08-07 06:00:00 17.2 21 Sur 30 Sudeste 0 829.8 -1 64
2019-08-07 05:00:00 17.6 6 Este 25 Este 0 830.1 -1.2 62
2019-08-07 04:00:00 17.9 9 Este 28 Sudeste 0 830.3 -1.7 79
2019-08-07 03:00:00 18.9 7 Sudeste 22 Este 0 830.8 -1.4 54
2019-08-07 02:00:00 18.5 10 Sudeste 23 Sur 0 831.3 -0.7 53
2019-08-07 01:00:00 18.4 10 Sur 20 Sur 0 832 0.3 68
2019-08-07 00:00:00 18.2 3 Este 13 Sur 0 832.2 0.8 69
2019-08-06 23:00:00 19.2 3 Sudoeste 23 Sudeste 0 832 0.5 66
2019-08-06 22:00:00 19.8 14 Sudeste 23 Sur 0 831.7 0.3 65
2019-08-06 21:00:00 20.6 11 Sur 26 Sudoeste 0 831.4 -0.3 61
2019-08-06 20:00:00 23.6 9 Sudoeste 27 Sudoeste 0 831.5 -0.7 48
2019-08-06 19:00:00 23.9 8 Sudoeste 26 Sur 0 831.4 -0.7 46
2019-08-06 18:00:00 24 8 Sudoeste 35 Este 0 831.7 -0.8 44
2019-08-06 17:00:00 25.6 9 Sudoeste 32 Sudeste 0 832.2 -0.8 43
2019-08-06 16:00:00 25.8 9 Sudeste 30 Este 0 832.1 -0.9 44
2019-08-06 15:00:00 24.5 9 Sur 29 Sudoeste 0 832.5 -0.4 40
2019-08-06 14:00:00 24.6 11 Sudoeste 30 Sudoeste 0 833 0 45
2019-08-06 13:00:00 24.9 12 Sur 31 Sur 0 833 0.1 39
2019-08-06 12:00:00 24.8 12 Sur 22 Sudeste 0 832.9 -0.1 38
2019-08-06 11:00:00 22.7 5 Noroeste 13 Noroeste 0 833 0.1 44
2019-08-06 10:00:00 21.3 5 Noroeste 13 Norte 0 832.9 -0.4 48
2019-08-06 09:00:00 19.6 4 Noroeste 13 Sudeste 0 833 -0.4 50
2019-08-06 08:00:00 16.6 6 Sur 18 Sur 0 832.9 -0.7 54
2019-08-06 07:00:00 15.8 2 Sudeste 12 Sudeste 0 833.3 -0.5 51
2019-08-06 06:00:00 18 8 Sur 24 Sudoeste 0 833.4 -0.8 41
2019-08-06 05:00:00 18 7 Sur 18 Sur 0 833.6 -0.8 35
2019-08-06 04:00:00 18.2 7 Sur 19 Sudeste 0 833.8 -0.8 35
2019-08-06 03:00:00 16.5 4 Sur 17 Sur 0 834.2 -0.3 51
2019-08-06 02:00:00 18.6 8 Sur 22 Sur 0 834.4 -0.2 47
2019-08-06 01:00:00 18.2 8 Sur 22 Sudoeste 0 834.6 0.5 59
2019-08-06 00:00:00 18.5 9 Sur 26 Sudeste 0 834.5 0.8 53
2019-08-05 23:00:00 19.1 17 Sur 26 Sur 0 834.6 0.9 57
2019-08-05 22:00:00 19.6 12 Sur 27 Sur 0 834.1 0.4 54
2019-08-05 21:00:00 20.1 19 Sur 30 Sur 0 833.7 -0.3 54
2019-08-05 20:00:00 23.2 13 Sur 35 Sudoeste 0 833.7 -0.4 44
2019-08-05 19:00:00 24.6 10 Sudoeste 31 Sudoeste 0 833.7 -0.7 41
2019-08-05 18:00:00 25.2 12 Sudoeste 30 Sudoeste 0 834 -0.5 38
2019-08-05 17:00:00 25.7 11 Sudoeste 30 Sudoeste 0 834.1 -0.6 38
2019-08-05 16:00:00 25.7 11 Sudoeste 32 Sur 0 834.4 -0.5 39
2019-08-05 15:00:00 25.2 11 Sudoeste 27 Sudoeste 0 834.5 -0.5 42
2019-08-05 14:00:00 24.7 10 Sudoeste 30 Sudoeste 0 834.7 -0.1 42
2019-08-05 13:00:00 24.2 10 Sudoeste 26 Sudoeste 0 834.9 0.2 46
2019-08-05 12:00:00 23.5 14 Sur 28 Sur 0 835 0.2 48
2019-08-05 11:00:00 23.4 10 Sudoeste 20 Sudoeste 0 834.8 -0.1 44
2019-08-05 10:00:00 21 5 Norte 11 Norte 0 834.7 -0.1 58
2019-08-05 09:00:00 18.4 3 Sudeste 8 Sudeste 0 834.8 0.2 59
2019-08-05 08:00:00 15.3 3 Este 6 Sudeste 0 834.9 0.1 65
2019-08-05 07:00:00 15.4 5 Sudeste 15 Nordeste 0 834.8 -0.2 62
2019-08-05 06:00:00 14.3 5 Sudeste 8 Sudeste 0 834.6 -0.5 69
2019-08-05 05:00:00 14.6 5 Sudeste 8 Sudeste 0 834.8 -0.6 70
2019-08-05 04:00:00 15 5 Sudeste 9 Sudeste 0 835 -0.5 68
2019-08-05 03:00:00 15 4 Sudeste 8 Sudeste 0 835.1 -0.4 72
2019-08-05 02:00:00 15 5 Sudeste 9 Sudeste 0 835.4 0.1 73
2019-08-05 01:00:00 15.4 5 Este 9 Sudeste 0 835.5 0.7 76
2019-08-05 00:00:00 16.2 5 Sudeste 10 Sudeste 0 835.5 1.1 75
2019-08-04 23:00:00 16.5 5 Sudeste 10 Sur 0 835.3 1.3 75
2019-08-04 22:00:00 18.8 8 Sur 29 Sur 0 834.8 0.9 67
2019-08-04 21:00:00 19.6 12 Sur 29 Sur 0 834.4 0.6 69
2019-08-04 20:00:00 21.7 14 Sur 30 Sur 0 834 0.2 62
2019-08-04 19:00:00 22.7 10 Sudeste 34 Sudoeste 0 833.9 -0.1 64
2019-08-04 18:00:00 24.8 10 Sur 33 Sudoeste 0 833.8 -0.6 43
2019-08-04 17:00:00 25.7 8 Sudoeste 32 Este 0 833.8 -0.5 39
2019-08-04 16:00:00 25 9 Sudeste 26 Sudeste 0 834 -0.5 40
2019-08-04 15:00:00 22.9 8 Sudeste 27 Sudeste 0 834.4 0 49
2019-08-04 14:00:00 25.1 11 Sudeste 28 Sudeste 0 834.3 -0.1 50
2019-08-04 13:00:00 24.9 8 Sudoeste 27 Sur 0 834.5 0.1 43
2019-08-04 12:00:00 24.3 13 Sudeste 25 Sur 0 834.4 0 42
2019-08-04 11:00:00 23.3 4 Nordeste 15 Nordeste 0 834.4 0.3 50
2019-08-04 10:00:00 21.1 6 Norte 11 Norte 0 834.4 0.5 53
2019-08-04 09:00:00 18.3 0 Calma 6 Sudeste 0 834.4 0.6 58
2019-08-04 08:00:00 14.5 4 Sudeste 9 Sudeste 0 834.1 0.1 72
2019-08-04 07:00:00 14.1 5 Sudeste 10 Sudeste 0 833.9 -0.3 72
2019-08-04 06:00:00 14.2 7 Sudeste 10 Este 0 833.8 -0.4 73
2019-08-04 05:00:00 14.2 8 Sudeste 10 Sudeste 0 834 -0.3 72
2019-08-04 04:00:00 14.1 6 Sudeste 9 Sudeste 0 834.2 -0.2 71
2019-08-04 03:00:00 14.3 6 Sudeste 10 Este 0 834.2 -0.1 73
2019-08-04 02:00:00 14.4 5 Sudeste 10 Sudeste 0 834.3 0.1 75
2019-08-04 01:00:00 14.8 6 Sudeste 9 Sudeste 0 834.4 0.7 75
2019-08-04 00:00:00 15.3 6 Sudeste 9 Sudeste 0 834.3 1.1 73
2019-08-03 23:00:00 16.3 5 Sudoeste 21 Sur 0 834.2 1.2 69
2019-08-03 22:00:00 18.1 10 Sur 27 Sudeste 0 833.7 0.5 62
2019-08-03 21:00:00 18.7 12 Sudeste 32 Sudeste 0 833.2 -0.1 63
2019-08-03 20:00:00 21.9 14 Sur 33 Sudoeste 0 833 -0.6 51
2019-08-03 19:00:00 22.9 16 Sur 34 Sur 0 833.2 -0.7 49
2019-08-03 18:00:00 23.8 13 Sudoeste 31 Sudoeste 0 833.3 -0.8 45
2019-08-03 17:00:00 24.8 10 Sudoeste 32 Sur 0 833.6 -0.7 41
2019-08-03 16:00:00 24.1 13 Sudoeste 31 Sudoeste 0 833.9 -0.7 43
2019-08-03 15:00:00 24 9 Sudoeste 28 Sur 0 834.1 -0.4 47
2019-08-03 14:00:00 23.5 12 Sudoeste 28 Sur 0 834.3 0.1 48
2019-08-03 13:00:00 22.4 17 Sur 30 Sudeste 0 834.6 0.3 47
2019-08-03 12:00:00 21.8 18 Sur 34 Sudoeste 0 834.5 0.3 49
2019-08-03 11:00:00 20.7 10 Noroeste 24 Oeste 0 834.2 0.2 49
2019-08-03 10:00:00 18.8 5 Noroeste 10 Noroeste 0 834.3 0.3 58
2019-08-03 09:00:00 16.3 3 Este 7 Sur 0 834.2 0.2 69
2019-08-03 08:00:00 13 2 Este 8 Sudeste 0 834 -0.1 80
2019-08-03 07:00:00 12.4 4 Este 10 Sudeste 0 834 -0.5 80
2019-08-03 06:00:00 12.6 6 Sudeste 10 Sudeste 0 834 -0.5 80
2019-08-03 05:00:00 12.5 6 Sudeste 11 Sudeste 0 834.1 -0.6 80
2019-08-03 04:00:00 12.1 6 Sudeste 10 Sudeste 0 834.5 -0.3 82
2019-08-03 03:00:00 12.6 5 Sudeste 8 Sudeste 0 834.5 -0.2 80
2019-08-03 02:00:00 12.6 6 Sudeste 9 Sudeste 0 834.7 0 80
2019-08-03 01:00:00 13.3 5 Sudeste 9 Sudeste 0 834.8 0.5 84
2019-08-03 00:00:00 14 4 Sudeste 8 Sudeste 0 834.7 0.6 80
2019-08-02 23:00:00 15.1 2 Sudeste 10 Sudeste 0 834.7 0.8 79
2019-08-02 22:00:00 14.8 5 Sudeste 18 Sur 0 834.3 0.6 77
2019-08-02 21:00:00 17 11 Sur 28 Sudeste 0 834.1 0.6 65
2019-08-02 20:00:00 18.3 11 Sur 33 Sudeste 0 833.9 0.5 63
2019-08-02 19:00:00 18.8 10 Sudeste 28 Sudeste 0 833.7 0.3 61
2019-08-02 18:00:00 22.5 10 Sudeste 26 Sudeste 0 833.5 0 51
2019-08-02 17:00:00 23.5 4 Sudoeste 30 Sudoeste 0 833.4 -0.1 39
2019-08-02 16:00:00 24.3 10 Sudoeste 32 Sudoeste 0 833.4 -0.2 39
2019-08-02 15:00:00 23.3 10 Sudoeste 36 Sudoeste 0 833.5 -0.1 44
2019-08-02 14:00:00 22.9 10 Sur 27 Sudeste 0 833.5 0 45
2019-08-02 13:00:00 21.5 10 Sudoeste 34 Oeste 0 833.6 0.3 49
2019-08-02 12:00:00 20.8 15 Oeste 35 Noroeste 0 833.6 0.4 48
2019-08-02 11:00:00 19.3 8 Noroeste 17 Noroeste 0 833.5 0.5 62
2019-08-02 10:00:00 17.9 6 Nordeste 13 Nordeste 0 833.3 0.1 62
2019-08-02 09:00:00 15.9 4 Norte 13 Sudeste 0 833.2 0 71
2019-08-02 08:00:00 13.3 4 Sur 24 Sudoeste 0 833 0 82
2019-08-02 07:00:00 13.8 12 Sudoeste 32 Oeste 1.4 833.2 -0.1 73
2019-08-02 06:00:00 13.7 3 Oeste 9 Este 0 833.2 -0.3 80
2019-08-02 05:00:00 14.2 6 Este 14 Sudoeste 0 833 -0.4 74
2019-08-02 04:00:00 14.1 3 Sudeste 21 Sudoeste 0 833.3 -0.4 81
2019-08-02 03:00:00 14.8 5 Sudoeste 11 Sudoeste 0 833.5 0.2 72
2019-08-02 02:00:00 14 3 Noroeste 11 Sur 0 833.4 0.5 74
2019-08-02 01:00:00 13.8 3 Sudeste 7 Sur 0 833.7 1.3 73
2019-08-02 00:00:00 14.5 5 Sudoeste 11 Sudoeste 0 833.3 1.3 70
2019-08-01 23:00:00 14.8 5 Sur 13 Sudoeste 0 832.9 1 68
2019-08-01 22:00:00 16.7 6 Sudoeste 11 Oeste 0 832.4 0.1 58
2019-08-01 21:00:00 18.3 4 Sudoeste 23 Sur 0 832 -0.1 54
2019-08-01 20:00:00 20.7 14 Sur 28 Sur 0 831.9 -0.2 48
2019-08-01 19:00:00 21.8 6 Sudoeste 37 Este 0 832.3 0.2 47
2019-08-01 18:00:00 22 16 Sudoeste 40 Sudoeste 0 832.1 -0.3 43
2019-08-01 17:00:00 21.8 18 Sudoeste 33 Sudeste 0 832.1 -0.6 43
2019-08-01 16:00:00 22.8 6 Este 40 Sudeste 0 832.1 -1 42
2019-08-01 15:00:00 21.6 13 Este 36 Este 0 832.4 -0.9 45
2019-08-01 14:00:00 20.8 14 Este 33 Nordeste 0 832.7 -0.2 53
2019-08-01 13:00:00 20.7 9 Nordeste 35 Este 0 833.1 0.3 61
2019-08-01 12:00:00 20.8 7 Sur 30 Sudoeste 0 833.3 0.9 61
2019-08-01 11:00:00 20.2 14 Sudoeste 28 Sudoeste 0 832.9 -0.1 49
2019-08-01 10:00:00 19.2 5 Noroeste 15 Norte 0 832.8 -0.5 51
2019-08-01 09:00:00 16.7 4 Noroeste 9 Sur 0 832.4 -1.2 70
2019-08-01 08:00:00 13.5 4 Sur 9 Sudeste 0 833 -0.6 77
2019-08-01 07:00:00 12.2 6 Sudeste 12 Nordeste 0 833.3 -1 79
2019-08-01 06:00:00 14.6 7 Nordeste 32 Sur 0 833.6 -0.5 78
2019-08-01 05:00:00 13.1 3 Sudeste 11 Este 0 833.6 -0.9 79
2019-08-01 04:00:00 13.6 5 Sudeste 15 Noroeste 0 834.3 -1.1 80
2019-08-01 03:00:00 13.5 5 Sudeste 12 Sur 0 834.1 -0.7 76
2019-08-01 02:00:00 14.6 6 Nordeste 19 Sudeste 0 834.5 -0.2 77
2019-08-01 01:00:00 13.8 4 Este 9 Sudeste 0 835.4 0.8 83
2019-08-01 00:00:00 14 6 Sudeste 9 Sudeste 0 834.8 0.7 83
2019-07-31 23:00:00 14.2 5 Sudeste 10 Sudeste 0 834.7 0.7 82
2019-07-31 22:00:00 15.2 5 Sur 16 Sur 0 834.6 0.6 78
2019-07-31 21:00:00 17.5 13 Sur 31 Sudeste 0 834.1 0 69
2019-07-31 20:00:00 20.2 10 Sudoeste 32 Sur 0 834 -0.2 63
2019-07-31 19:00:00 20.7 15 Sudoeste 33 Sudoeste 0 834 -0.5 58
2019-07-31 18:00:00 21.6 11 Sudoeste 36 Sudoeste 0 834.1 -0.4 47
2019-07-31 17:00:00 21.7 12 Sur 36 Sudoeste 0 834.2 -0.4 48
2019-07-31 16:00:00 21.8 16 Sur 32 Sur 0 834.5 -0.3 46
2019-07-31 15:00:00 22.1 15 Sur 33 Sur 0 834.5 -0.4 48
2019-07-31 14:00:00 21.4 8 Norte 22 Norte 0 834.6 0.1 47
2019-07-31 13:00:00 19.6 12 Noroeste 20 Noroeste 0 834.8 0 53
2019-07-31 12:00:00 18.4 9 Noroeste 26 Noroeste 0 834.9 0 54
2019-07-31 11:00:00 17.1 15 Noroeste 29 Noroeste 0 834.5 0 52
2019-07-31 10:00:00 16.6 5 Norte 11 Nordeste 0 834.8 0.4 52
2019-07-31 09:00:00 14.7 4 Nordeste 15 Nordeste 0 834.9 0.7 51
2019-07-31 08:00:00 11.3 5 Este 16 Sudeste 0 834.5 0.5 61
2019-07-31 07:00:00 10.2 7 Sudeste 16 Sudeste 0 834.4 0.3 74
2019-07-31 06:00:00 10.1 6 Sudeste 13 Sudeste 0 834.2 0 81
2019-07-31 05:00:00 10.3 8 Este 13 Sudeste 0 834 -0.5 82
2019-07-31 04:00:00 10.4 4 Este 10 Sudeste 0 834.1 -0.5 83
2019-07-31 03:00:00 10.5 5 Sudeste 7 Sur 0 834.2 -0.2 85
2019-07-31 02:00:00 11 3 Sudeste 10 Sudeste 0 834.5 0.2 87
2019-07-31 01:00:00 11.9 3 Este 15 Sudeste 0 834.6 0.6 81
2019-07-31 00:00:00 13.9 13 Sur 26 Sudeste 0 834.4 1.1 71
2019-07-30 23:00:00 14.6 11 Sur 27 Sur 0 834.3 1.4 76
2019-07-30 22:00:00 15.3 10 Sur 26 Sur 0 834 1.3 70
2019-07-30 21:00:00 16 11 Sur 30 Sudoeste 0 833.3 0.4 64
2019-07-30 20:00:00 18.8 9 Sudoeste 35 Sudoeste 0 832.9 0.1 52
2019-07-30 19:00:00 19.9 11 Sudoeste 32 Sudoeste 0 832.7 -0.1 48
2019-07-30 18:00:00 19.3 5 Sur 25 Este 0 832.9 -0.1 52
2019-07-30 17:00:00 18.6 9 Sur 34 Sudeste 0 832.8 -0.3 60
2019-07-30 16:00:00 18.7 6 Noroeste 30 Sudoeste 0 832.8 -0.5 60
2019-07-30 15:00:00 19.7 8 Este 29 Este 0 833 -0.2 60
2019-07-30 14:00:00 19.5 6 Sudeste 24 Sudoeste 0 833.1 0.3 65
2019-07-30 13:00:00 17.8 7 Noroeste 34 Nordeste 0 833.3 0.6 69
2019-07-30 12:00:00 17.9 6 Este 36 Este 0 833.2 0.7 68
2019-07-30 11:00:00 17.7 11 Este 32 Sudeste 0 832.8 0.7 66
2019-07-30 10:00:00 16.2 12 Sudeste 28 Sudoeste 0 832.7 1 68
2019-07-30 09:00:00 15.1 4 Oeste 23 Sudoeste 0 832.5 0.9 71
2019-07-30 08:00:00 14.7 12 Sudeste 30 Este 0 832.1 0.2 70
2019-07-30 07:00:00 14.3 6 Sudeste 23 Sudeste 0 831.7 -0.3 67
2019-07-30 06:00:00 14 13 Este 35 Sudeste 0 831.6 -0.4 70
2019-07-30 05:00:00 14.3 13 Sudeste 28 Sudeste 0 831.9 -0.2 74
2019-07-30 04:00:00 14.7 6 Sudeste 18 Sur 0 832 0.1 79
2019-07-30 03:00:00 14.9 6 Sur 22 Sudoeste 0 832 0.1 77
2019-07-30 02:00:00 15.7 10 Sur 26 Sur 0 832.1 0.4 75
2019-07-30 01:00:00 14.9 5 Sudeste 19 Sudeste 0 831.9 1 79
2019-07-30 00:00:00 14 4 Sudeste 9 Sudeste 0 831.9 1.3 83
2019-07-29 23:00:00 16.1 4 Sudoeste 27 Sur 0 831.7 1.6 74
2019-07-29 22:00:00 16.8 23 Sudeste 37 Sudeste 0 830.9 1 72
2019-07-29 21:00:00 18.7 13 Sudeste 26 Sur 0 830.6 0.7 51
2019-07-29 20:00:00 22.2 7 Sudoeste 23 Sudoeste 0 830.1 0.4 38
2019-07-29 19:00:00 22.6 11 Sur 28 Sudeste 0 829.9 0.2 38
2019-07-29 18:00:00 23.3 8 Sudoeste 28 Sur 0 829.9 0.3 35
2019-07-29 17:00:00 23 11 Sudoeste 28 Sur 0 829.7 0.1 38
2019-07-29 16:00:00 22.6 12 Sudoeste 29 Sudoeste 0 829.7 0.2 43
2019-07-29 15:00:00 22.6 11 Sur 23 Sur 0 829.6 0.1 41
2019-07-29 14:00:00 21.4 6 Sudoeste 23 Sur 0 829.6 0.2 46
2019-07-29 13:00:00 19.5 6 Norte 13 Noroeste 0 829.5 0.3 48
2019-07-29 12:00:00 17.7 7 Noroeste 14 Norte 0 829.5 0.5 49
2019-07-29 11:00:00 16.3 6 Noroeste 14 Norte 0 829.4 0.7 51
2019-07-29 10:00:00 15.2 3 Norte 10 Nordeste 0 829.2 0.9 59
2019-07-29 09:00:00 12.8 5 Norte 11 Este 0 829 0.7 64
2019-07-29 08:00:00 10.2 6 Nordeste 13 Sudeste 0 828.7 0.4 76
2019-07-29 07:00:00 8.5 3 Sudeste 9 Sudeste 0 828.3 -0.1 86
2019-07-29 06:00:00 8.6 3 Sudeste 11 Nordeste 0 828.3 -0.3 85
2019-07-29 05:00:00 8.8 3 Este 8 Este 0 828.3 -0.7 84
2019-07-29 04:00:00 10.4 6 Este 16 Este 0 828.4 -0.7 75
2019-07-29 03:00:00 10.1 4 Este 10 Oeste 0 828.6 -0.4 77
2019-07-29 02:00:00 10.1 4 Este 10 Sudeste 0 829 0.1 78
2019-07-29 01:00:00 11.2 4 Sur 24 Sudeste 0 829.1 0.3 72
2019-07-29 00:00:00 12.2 12 Sur 27 Sur 0 829 0.8 77
2019-07-28 23:00:00 12.6 14 Sur 29 Sudeste 0 828.9 1 77
2019-07-28 22:00:00 13.1 19 Sur 36 Sur 0 828.8 1.5 74
2019-07-28 21:00:00 14.3 18 Sur 35 Sudoeste 0 828.2 1.1 72
2019-07-28 20:00:00 17.8 12 Sur 27 Sudoeste 0 827.9 0.8 52
2019-07-28 19:00:00 18.8 7 Sudoeste 30 Sudoeste 0 827.3 0.2 47
2019-07-28 18:00:00 19.1 9 Sur 27 Sudoeste 0 827.1 0 46
2019-07-28 17:00:00 19.1 9 Sur 32 Sudoeste 0 827.1 -0.1 46
2019-07-28 16:00:00 19 10 Sudoeste 21 Sudoeste 0 827.1 -0.2 46
2019-07-28 15:00:00 18 6 Noroeste 17 Oeste 0 827.1 -0.1 37
2019-07-28 14:00:00 17.2 7 Norte 20 Noroeste 0 827.2 0 35
2019-07-28 13:00:00 15.5 4 Oeste 21 Oeste 0 827.3 0.2 38
2019-07-28 12:00:00 14 9 Noroeste 25 Noroeste 0 827.2 0.5 42
2019-07-28 11:00:00 12.3 10 Noroeste 21 Noroeste 0 827.2 1.2 44
2019-07-28 10:00:00 10.7 8 Oeste 21 Sudoeste 0 827.1 1.3 51
2019-07-28 09:00:00 9.5 5 Oeste 15 Noroeste 0 826.7 1.4 56
2019-07-28 08:00:00 7.6 8 Sudoeste 18 Sudoeste 0 826 0.6 69
2019-07-28 07:00:00 7.2 12 Sudoeste 32 Noroeste 0 825.8 0.6 73
2019-07-28 06:00:00 7.2 10 Oeste 23 Oeste 0 825.3 0.2 71
2019-07-28 05:00:00 7.4 6 Sudoeste 27 Noroeste 0 825.4 0.6 73
2019-07-28 04:00:00 7.6 8 Noroeste 28 Noroeste 0 825.2 0.8 76
2019-07-28 03:00:00 8.5 11 Noroeste 27 Noroeste 0 825.1 0.7 76
2019-07-28 02:00:00 8.8 8 Oeste 26 Oeste 0 824.8 0.6 80
2019-07-28 01:00:00 9 10 Noroeste 26 Noroeste 0 824.4 0.5 79
2019-07-28 00:00:00 9 9 Oeste 22 Sudoeste 0 824.4 0.9 85
2019-07-27 23:00:00 9.2 9 Sudoeste 21 Noroeste 0 824.2 1.1 89
2019-07-26 12:00:00 22.6 6 Sudeste 29 Sudoeste 0 831.7 -0.4 44
2019-07-26 11:00:00 22.6 8 Sur 20 Sur 0 831.9 -0.3 38
2019-07-26 10:00:00 21.2 4 Nordeste 11 Este 0 832 -0.2 42
2019-07-26 09:00:00 19 3 Noroeste 7 Nordeste 0 832.1 -0.3 49
2019-07-26 08:00:00 17.4 3 Norte 8 Sudeste 0 832.2 -0.3 54
2019-07-26 07:00:00 14.2 4 Sudeste 9 Sudeste 0 832.2 -0.6 58
2019-07-26 06:00:00 13.8 5 Sudeste 9 Sudeste 0 832.4 -0.8 61
2019-07-26 05:00:00 14.7 3 Este 8 Sudeste 0 832.5 -1.2 61
2019-07-26 04:00:00 14.7 6 Sudeste 11 Sudeste 0 832.8 -1.3 53
2019-07-26 03:00:00 14.6 7 Sudeste 10 Sudeste 0 833.2 -1.2 51
2019-07-26 02:00:00 14.7 5 Este 10 Sudeste 0 833.7 -0.7 66
2019-07-26 01:00:00 15.3 6 Sudeste 14 Sudeste 0 834.1 -0.1 62
2019-07-26 00:00:00 16.6 4 Sudeste 14 Sudoeste 0 834.4 0.4 59
2019-07-25 23:00:00 19 8 Sur 22 Sudeste 0 834.4 0.5 53
2019-07-25 22:00:00 19.7 8 Sur 31 Sudeste 0 834.2 0.5 52
2019-07-25 21:00:00 20.2 21 Sur 36 Sudeste 0 834 0.1 55
2019-07-25 20:00:00 22.7 16 Sur 35 Sudoeste 0 833.9 -0.3 50
2019-07-25 19:00:00 24.6 12 Sudoeste 34 Sudoeste 0 833.7 -0.7 47
2019-07-25 18:00:00 25.9 10 Sur 33 Sudeste 0 833.9 -0.9 37
2019-07-25 17:00:00 26.6 8 Sudeste 33 Este 0 834.2 -0.7 34
2019-07-25 16:00:00 26.2 11 Sudeste 26 Oeste 0 834.4 -0.5 35
2019-07-25 15:00:00 26.3 9 Sudoeste 27 Sudoeste 0 834.8 -0.1 33
2019-07-25 14:00:00 25.5 8 Este 35 Sudeste 0 834.9 -0.2 37
2019-07-25 13:00:00 25.4 15 Sur 30 Sudeste 0 834.9 -0.2 38
2019-07-25 12:00:00 24.7 9 Noroeste 15 Noroeste 0 834.9 -0.3 41
2019-07-25 11:00:00 23.4 8 Noroeste 13 Noroeste 0 835.1 0 44
2019-07-25 10:00:00 22.8 6 Norte 12 Nordeste 0 835.1 0.1 51
2019-07-25 09:00:00 20 2 Sudeste 8 Norte 0 835.2 0.2 58
2019-07-25 08:00:00 17 3 Este 11 Este 0 835.1 0 64
2019-07-25 07:00:00 15 5 Sudeste 12 Sudeste 0 835 -0.4 61
2019-07-25 06:00:00 15.1 6 Sudeste 11 Sudeste 0 835 -0.7 66
2019-07-25 05:00:00 15.3 5 Sudeste 11 Sudeste 0 835.1 -1 67
2019-07-25 04:00:00 16 4 Sudeste 11 Sudeste 0 835.4 -1.1 71
2019-07-25 03:00:00 16.2 6 Sudeste 10 Sudeste 0 835.7 -0.9 70
2019-07-25 02:00:00 16.7 6 Sudeste 10 Sudeste 0 836.1 -0.6 70
2019-07-25 01:00:00 16.8 6 Sudeste 10 Sudeste 0 836.5 0.1 69
2019-07-25 00:00:00 17.3 6 Sudeste 9 Sudeste 0 836.6 0.4 68
2019-07-24 23:00:00 17.8 6 Sudeste 9 Sudeste 0 836.7 0.6 69
2019-07-24 22:00:00 19.6 6 Sur 19 Sudeste 0 836.4 0.1 64
2019-07-24 21:00:00 21.2 13 Sudeste 26 Sudeste 0 836.2 -0.6 64
2019-07-24 20:00:00 23.3 10 Sudeste 23 Sudeste 0 836.1 -0.6 58
2019-07-24 19:00:00 22.7 6 Sudeste 15 Sudeste 0 836.3 0 53
2019-07-24 18:00:00 23.1 7 Norte 26 Nordeste 0 836.8 0.2 45
2019-07-24 17:00:00 25.5 7 Norte 32 Nordeste 0 836.7 0 40
2019-07-24 16:00:00 26.9 10 Este 33 Sudeste 0 836.3 -0.5 40
2019-07-24 15:00:00 26.6 14 Sudeste 35 Este 0 836.6 -0.3 45
2019-07-24 14:00:00 27.4 9 Sur 29 Sudoeste 0 836.7 -0.2 42
2019-07-24 13:00:00 27.2 10 Oeste 21 Sudoeste 0 836.8 -0.1 24
2019-07-24 12:00:00 25.9 9 Noroeste 14 Noroeste 0 836.9 0 30
2019-07-24 11:00:00 25.3 5 Noroeste 9 Nordeste 0 836.9 0.1 29
2019-07-24 10:00:00 23.5 2 Norte 9 Norte 0 836.9 0.3 40
2019-07-24 09:00:00 20.9 4 Norte 8 Norte 0 836.9 0.2 48
2019-07-24 08:00:00 17.1 3 Sudeste 10 Sudeste 0 836.8 0.1 58
2019-07-24 07:00:00 15.7 8 Sudeste 11 Sudeste 0 836.6 -0.4 58
2019-07-24 06:00:00 16.8 5 Este 13 Sudeste 0 836.7 -0.6 56
2019-07-24 05:00:00 16.6 5 Este 11 Sudeste 0 836.7 -0.9 55
2019-07-24 04:00:00 17.3 5 Este 11 Sudeste 0 837 -0.9 55
2019-07-24 03:00:00 16.7 4 Sudeste 11 Sudeste 0 837.3 -0.6 58
2019-07-24 02:00:00 18.6 6 Este 10 Este 0 837.6 -0.4 49
2019-07-24 01:00:00 18.5 6 Este 12 Sudeste 0 837.9 0.1 50
2019-07-24 00:00:00 18.4 3 Norte 9 Sur 0 837.9 0.4 49
2019-07-23 23:00:00 18 6 Sudeste 10 Sudeste 0 838 0.7 52
2019-07-23 22:00:00 19.7 2 Oeste 21 Sudeste 0 837.8 0.4 48
2019-07-23 21:00:00 21.9 6 Sudeste 37 Sudeste 0 837.5 0 44
2019-07-23 20:00:00 23.7 21 Sudeste 39 Este 0 837.3 -0.3 50
2019-07-23 19:00:00 24.8 18 Sudeste 33 Sudeste 0 837.4 -0.4 39
2019-07-23 18:00:00 27.1 12 Sudeste 28 Este 0 837.5 -0.6 32
2019-07-23 17:00:00 27 13 Sudeste 28 Sudeste 0 837.6 -0.7 25
2019-07-23 16:00:00 28.9 10 Noroeste 23 Noroeste 0 837.8 -0.7 23
2019-07-23 15:00:00 25.9 9 Sur 23 Noroeste 0 838.1 -0.4 27
2019-07-23 14:00:00 27.3 9 Oeste 23 Sudoeste 0 838.3 -0.5 28
2019-07-23 13:00:00 26.4 14 Noroeste 30 Noroeste 0 838.5 -0.3 28
2019-07-23 12:00:00 25.1 8 Norte 15 Norte 0 838.5 -0.3 38
2019-07-23 11:00:00 23.5 6 Noroeste 10 Noroeste 0 838.8 -0.1 40
2019-07-23 10:00:00 22 5 Norte 9 Norte 0 838.8 -0.2 41
2019-07-23 09:00:00 20.4 4 Nordeste 9 Nordeste 0 838.8 -0.3 45
2019-07-23 08:00:00 16.6 3 Sudeste 9 Sudeste 0 838.9 -0.5 56
2019-07-23 07:00:00 14.7 5 Sudeste 11 Este 0 839 -0.7 62
2019-07-23 06:00:00 15.4 4 Este 9 Este 0 839.1 -0.9 58
2019-07-23 05:00:00 16.5 6 Este 12 Sudeste 0 839.4 -1 56
2019-07-23 04:00:00 16.7 5 Este 11 Sudeste 0 839.7 -0.8 56
2019-07-23 03:00:00 16.3 4 Sudeste 10 Este 0 840 -0.6 58
2019-07-23 02:00:00 16.7 5 Este 10 Sudeste 0 840.4 -0.3 58
2019-07-23 01:00:00 17.4 7 Sudeste 12 Sudeste 0 840.5 0 55
2019-07-23 00:00:00 17.3 6 Sur 10 Sudeste 0 840.6 0.2 61
2019-07-22 23:00:00 18 6 Sudeste 15 Sur 0 840.7 0.4 58
2019-07-22 22:00:00 21 9 Sur 18 Sudoeste 0 840.5 0.1 46
2019-07-22 21:00:00 22 6 Sudoeste 32 Sudeste 0 840.4 0.2 47
2019-07-22 20:00:00 22.7 20 Sudeste 36 Sudeste 0 840.3 -0.2 49
2019-07-22 19:00:00 25.1 14 Sudeste 33 Sudeste 0 840.4 -0.2 45
2019-07-22 18:00:00 26.4 15 Sudeste 35 Sudeste 0 840.2 -0.7 36
2019-07-22 17:00:00 28.2 8 Sur 26 Sudoeste 0 840.5 -0.6 31
2019-07-22 16:00:00 27.6 12 Sudoeste 31 Sudoeste 0 840.6 -0.8 32
2019-07-22 15:00:00 27.2 10 Sur 27 Sudoeste 0 840.9 -0.5 39
2019-07-22 14:00:00 27 11 Sudoeste 29 Sudoeste 0 841.1 -0.4 34
2019-07-22 13:00:00 25.9 9 Noroeste 17 Noroeste 0 841.4 0 38
2019-07-22 12:00:00 24.7 9 Norte 15 Noroeste 0 841.4 0 42
2019-07-22 11:00:00 23.2 7 Norte 12 Norte 0 841.5 0.2 46
2019-07-22 10:00:00 21.5 4 Norte 9 Noroeste 0 841.4 0.3 48
2019-07-22 09:00:00 19.5 2 Sudeste 6 Este 0 841.4 0.4 57
2019-07-22 08:00:00 16.7 4 Este 9 Sudeste 0 841.3 0.3 63
2019-07-22 07:00:00 15.7 4 Sudeste 9 Este 0 841.1 0 57
2019-07-22 06:00:00 15.5 4 Sudeste 10 Sudeste 0 841 -0.3 58
2019-07-22 05:00:00 15.7 4 Sur 9 Sur 0 841 -0.6 59
2019-07-22 04:00:00 15.9 6 Sudeste 10 Sudeste 0 841.1 -0.4 66
2019-07-22 03:00:00 16.3 6 Sudeste 10 Sudeste 0 841.3 0.1 69
2019-07-22 02:00:00 16.3 6 Sudeste 10 Sudeste 0 841.6 0.8 69
2019-07-22 01:00:00 17 7 Este 10 Sudeste 0 841.5 1.3 69
2019-07-22 00:00:00 17.6 5 Sudeste 10 Sudeste 0 841.2 1.3 63
2019-07-21 23:00:00 18.3 5 Sudeste 13 Sudeste 0 840.8 1.2 62
2019-07-21 22:00:00 20.2 14 Sudeste 24 Sudeste 0 840.2 0.8 63
2019-07-21 21:00:00 21.6 12 Sur 26 Sur 0 839.9 0.6 58
2019-07-21 20:00:00 23.7 12 Sur 23 Sudoeste 0 839.6 0 49
2019-07-21 19:00:00 25.1 11 Sur 26 Sudoeste 0 839.4 -0.2 50
2019-07-21 18:00:00 25.5 12 Sudoeste 33 Sudoeste 0 839.3 -0.3 43
2019-07-21 17:00:00 26.2 6 Sudoeste 36 Sudoeste 0 839.6 -0.1 40
2019-07-21 16:00:00 25.9 8 Sudoeste 28 Sudoeste 0 839.6 -0.2 42
2019-07-21 15:00:00 25.4 7 Sur 25 Sur 0 839.6 0.1 47
2019-07-21 14:00:00 25.4 12 Sur 23 Sur 0 839.7 0.3 44
2019-07-21 13:00:00 25 7 Sudoeste 21 Sur 0 839.8 0.5 41
2019-07-21 12:00:00 23.2 7 Noroeste 13 Noroeste 0 839.5 0.4 47
2019-07-21 11:00:00 21.7 8 Norte 14 Noroeste 0 839.4 0.4 52
2019-07-21 10:00:00 21.4 5 Nordeste 10 Nordeste 0 839.3 0.6 46
2019-07-21 09:00:00 18.8 3 Nordeste 8 Nordeste 0 839.1 0.5 59
2019-07-21 08:00:00 15.6 3 Este 10 Sudeste 0 839 0.6 69
2019-07-21 07:00:00 14.5 6 Sudeste 12 Sudeste 0 838.7 0.3 75
2019-07-21 06:00:00 14.1 5 Sudeste 12 Sudeste 0 838.6 0.1 78
2019-07-21 05:00:00 14 5 Sudeste 9 Sudeste 0 838.4 -0.2 82
2019-07-21 04:00:00 13.9 5 Sudeste 8 Sudeste 0 838.4 0 88
2019-07-21 03:00:00 15.3 3 Sudeste 9 Sudeste 0 838.5 0.6 82
2019-07-21 02:00:00 15.6 4 Este 8 Sudeste 0 838.6 1 83
2019-07-21 01:00:00 17.2 2 Sudeste 17 Sur 0 838.4 1.5 75
2019-07-21 00:00:00 18.1 7 Sur 24 Sur 0 837.9 1.6 73